sensor_id;sensor_type;location;lat;lon;timestamp;P1;durP1;ratioP1;P2;durP2;ratioP2
30299;SDS011;17110;52.602;12.998;2023-07-22T00:02:09;7.78;;;6.50;;
30299;SDS011;17110;52.602;12.998;2023-07-22T00:04:36;8.32;;;7.63;;
30299;SDS011;17110;52.602;12.998;2023-07-22T00:07:02;7.10;;;6.25;;
30299;SDS011;17110;52.602;12.998;2023-07-22T00:09:28;7.20;;;6.70;;
30299;SDS011;17110;52.602;12.998;2023-07-22T00:11:53;8.07;;;7.53;;
30299;SDS011;17110;52.602;12.998;2023-07-22T00:14:19;9.07;;;7.95;;
30299;SDS011;17110;52.602;12.998;2023-07-22T00:16:44;8.27;;;7.57;;
30299;SDS011;17110;52.602;12.998;2023-07-22T00:19:10;9.38;;;8.48;;
30299;SDS011;17110;52.602;12.998;2023-07-22T00:21:37;9.88;;;8.88;;
30299;SDS011;17110;52.602;12.998;2023-07-22T00:24:03;10.77;;;9.68;;
30299;SDS011;17110;52.602;12.998;2023-07-22T00:26:29;11.05;;;10.15;;
30299;SDS011;17110;52.602;12.998;2023-07-22T00:28:54;12.82;;;11.20;;
30299;SDS011;17110;52.602;12.998;2023-07-22T00:31:20;12.32;;;10.90;;
30299;SDS011;17110;52.602;12.998;2023-07-22T00:33:45;12.68;;;11.57;;
30299;SDS011;17110;52.602;12.998;2023-07-22T00:36:11;11.52;;;10.38;;
30299;SDS011;17110;52.602;12.998;2023-07-22T00:38:38;12.15;;;10.20;;
30299;SDS011;17110;52.602;12.998;2023-07-22T00:41:04;12.27;;;11.25;;
30299;SDS011;17110;52.602;12.998;2023-07-22T00:43:29;13.32;;;12.05;;
30299;SDS011;17110;52.602;12.998;2023-07-22T00:45:55;12.55;;;11.57;;
30299;SDS011;17110;52.602;12.998;2023-07-22T00:48:21;13.10;;;12.00;;
30299;SDS011;17110;52.602;12.998;2023-07-22T00:50:47;11.20;;;10.18;;
30299;SDS011;17110;52.602;12.998;2023-07-22T00:53:13;13.57;;;12.18;;
30299;SDS011;17110;52.602;12.998;2023-07-22T00:55:40;12.95;;;11.60;;
30299;SDS011;17110;52.602;12.998;2023-07-22T00:58:06;12.73;;;11.55;;
30299;SDS011;17110;52.602;12.998;2023-07-22T01:00:32;12.63;;;11.23;;
30299;SDS011;17110;52.602;12.998;2023-07-22T01:02:58;12.93;;;11.73;;
30299;SDS011;17110;52.602;12.998;2023-07-22T01:05:23;13.15;;;11.40;;
30299;SDS011;17110;52.602;12.998;2023-07-22T01:07:51;12.63;;;10.70;;
30299;SDS011;17110;52.602;12.998;2023-07-22T01:10:17;12.35;;;11.25;;
30299;SDS011;17110;52.602;12.998;2023-07-22T01:12:45;11.73;;;10.55;;
30299;SDS011;17110;52.602;12.998;2023-07-22T01:15:11;10.60;;;9.80;;
30299;SDS011;17110;52.602;12.998;2023-07-22T01:17:37;12.80;;;11.27;;
30299;SDS011;17110;52.602;12.998;2023-07-22T01:20:03;11.95;;;10.85;;
30299;SDS011;17110;52.602;12.998;2023-07-22T01:22:30;11.70;;;10.57;;
30299;SDS011;17110;52.602;12.998;2023-07-22T01:24:58;15.30;;;11.07;;
30299;SDS011;17110;52.602;12.998;2023-07-22T01:27:24;11.82;;;10.63;;
30299;SDS011;17110;52.602;12.998;2023-07-22T01:29:50;12.20;;;11.00;;
30299;SDS011;17110;52.602;12.998;2023-07-22T01:32:16;11.60;;;10.60;;
30299;SDS011;17110;52.602;12.998;2023-07-22T01:34:42;11.70;;;10.50;;
30299;SDS011;17110;52.602;12.998;2023-07-22T01:37:07;14.85;;;11.02;;
30299;SDS011;17110;52.602;12.998;2023-07-22T01:39:33;11.55;;;10.38;;
30299;SDS011;17110;52.602;12.998;2023-07-22T01:42:00;11.38;;;10.27;;
30299;SDS011;17110;52.602;12.998;2023-07-22T01:44:26;13.52;;;10.80;;
30299;SDS011;17110;52.602;12.998;2023-07-22T01:46:52;11.52;;;10.45;;
30299;SDS011;17110;52.602;12.998;2023-07-22T01:49:17;12.32;;;11.02;;
30299;SDS011;17110;52.602;12.998;2023-07-22T01:51:43;13.13;;;10.00;;
30299;SDS011;17110;52.602;12.998;2023-07-22T01:54:09;13.38;;;9.65;;
30299;SDS011;17110;52.602;12.998;2023-07-22T01:56:35;10.27;;;9.00;;
30299;SDS011;17110;52.602;12.998;2023-07-22T01:59:02;11.75;;;9.30;;
30299;SDS011;17110;52.602;12.998;2023-07-22T02:01:28;10.45;;;8.32;;
30299;SDS011;17110;52.602;12.998;2023-07-22T02:03:54;12.20;;;8.20;;
30299;SDS011;17110;52.602;12.998;2023-07-22T02:06:19;7.63;;;6.80;;
30299;SDS011;17110;52.602;12.998;2023-07-22T02:08:45;8.25;;;7.65;;
30299;SDS011;17110;52.602;12.998;2023-07-22T02:11:11;8.02;;;7.22;;
30299;SDS011;17110;52.602;12.998;2023-07-22T02:13:37;7.35;;;6.78;;
30299;SDS011;17110;52.602;12.998;2023-07-22T02:16:04;8.43;;;7.40;;
30299;SDS011;17110;52.602;12.998;2023-07-22T02:18:30;9.52;;;7.93;;
30299;SDS011;17110;52.602;12.998;2023-07-22T02:20:56;8.63;;;7.70;;
30299;SDS011;17110;52.602;12.998;2023-07-22T02:23:22;8.13;;;7.50;;
30299;SDS011;17110;52.602;12.998;2023-07-22T02:25:48;8.57;;;7.50;;
30299;SDS011;17110;52.602;12.998;2023-07-22T02:28:14;8.50;;;7.80;;
30299;SDS011;17110;52.602;12.998;2023-07-22T02:30:40;8.30;;;7.70;;
30299;SDS011;17110;52.602;12.998;2023-07-22T02:33:08;7.90;;;7.30;;
30299;SDS011;17110;52.602;12.998;2023-07-22T02:35:34;7.63;;;7.03;;
30299;SDS011;17110;52.602;12.998;2023-07-22T02:37:59;7.88;;;7.28;;
30299;SDS011;17110;52.602;12.998;2023-07-22T02:40:25;8.05;;;7.25;;
30299;SDS011;17110;52.602;12.998;2023-07-22T02:42:51;8.05;;;7.35;;
30299;SDS011;17110;52.602;12.998;2023-07-22T02:45:16;8.57;;;7.15;;
30299;SDS011;17110;52.602;12.998;2023-07-22T02:47:42;7.60;;;7.00;;
30299;SDS011;17110;52.602;12.998;2023-07-22T02:50:09;7.47;;;6.78;;
30299;SDS011;17110;52.602;12.998;2023-07-22T02:52:35;8.32;;;7.18;;
30299;SDS011;17110;52.602;12.998;2023-07-22T02:55:04;8.88;;;8.18;;
30299;SDS011;17110;52.602;12.998;2023-07-22T02:57:31;7.93;;;7.32;;
30299;SDS011;17110;52.602;12.998;2023-07-22T02:59:57;7.70;;;7.00;;
30299;SDS011;17110;52.602;12.998;2023-07-22T03:02:23;8.10;;;7.32;;
30299;SDS011;17110;52.602;12.998;2023-07-22T03:04:49;7.68;;;7.15;;
30299;SDS011;17110;52.602;12.998;2023-07-22T03:07:16;8.80;;;7.95;;
30299;SDS011;17110;52.602;12.998;2023-07-22T03:09:41;8.63;;;7.60;;
30299;SDS011;17110;52.602;12.998;2023-07-22T03:12:07;8.00;;;7.40;;
30299;SDS011;17110;52.602;12.998;2023-07-22T03:14:34;7.53;;;6.93;;
30299;SDS011;17110;52.602;12.998;2023-07-22T03:16:59;6.78;;;6.28;;
30299;SDS011;17110;52.602;12.998;2023-07-22T03:19:25;7.28;;;6.68;;
30299;SDS011;17110;52.602;12.998;2023-07-22T03:21:51;7.95;;;7.18;;
30299;SDS011;17110;52.602;12.998;2023-07-22T03:24:18;7.53;;;6.80;;
30299;SDS011;17110;52.602;12.998;2023-07-22T03:26:43;6.78;;;6.28;;
30299;SDS011;17110;52.602;12.998;2023-07-22T03:29:09;9.25;;;6.97;;
30299;SDS011;17110;52.602;12.998;2023-07-22T03:31:34;7.65;;;7.13;;
30299;SDS011;17110;52.602;12.998;2023-07-22T03:34:00;7.40;;;6.70;;
30299;SDS011;17110;52.602;12.998;2023-07-22T03:36:26;7.05;;;6.38;;
30299;SDS011;17110;52.602;12.998;2023-07-22T03:38:51;7.05;;;6.45;;
30299;SDS011;17110;52.602;12.998;2023-07-22T03:41:18;6.30;;;5.82;;
30299;SDS011;17110;52.602;12.998;2023-07-22T03:43:44;7.68;;;6.97;;
30299;SDS011;17110;52.602;12.998;2023-07-22T03:46:10;6.70;;;5.95;;
30299;SDS011;17110;52.602;12.998;2023-07-22T03:48:35;6.55;;;5.93;;
30299;SDS011;17110;52.602;12.998;2023-07-22T03:51:01;7.15;;;6.47;;
30299;SDS011;17110;52.602;12.998;2023-07-22T03:53:27;7.10;;;6.57;;
30299;SDS011;17110;52.602;12.998;2023-07-22T03:55:52;6.82;;;6.22;;
30299;SDS011;17110;52.602;12.998;2023-07-22T03:58:19;8.90;;;6.15;;
30299;SDS011;17110;52.602;12.998;2023-07-22T04:00:47;8.85;;;6.35;;
30299;SDS011;17110;52.602;12.998;2023-07-22T04:03:13;7.30;;;6.60;;
30299;SDS011;17110;52.602;12.998;2023-07-22T04:05:39;12.27;;;7.82;;
30299;SDS011;17110;52.602;12.998;2023-07-22T04:08:04;8.45;;;7.57;;
30299;SDS011;17110;52.602;12.998;2023-07-22T04:10:30;7.75;;;7.15;;
30299;SDS011;17110;52.602;12.998;2023-07-22T04:12:56;9.48;;;7.30;;
30299;SDS011;17110;52.602;12.998;2023-07-22T04:15:23;8.27;;;7.10;;
30299;SDS011;17110;52.602;12.998;2023-07-22T04:17:48;8.55;;;7.78;;
30299;SDS011;17110;52.602;12.998;2023-07-22T04:20:14;7.93;;;7.32;;
30299;SDS011;17110;52.602;12.998;2023-07-22T04:22:39;8.35;;;7.65;;
30299;SDS011;17110;52.602;12.998;2023-07-22T04:25:06;8.15;;;7.40;;
30299;SDS011;17110;52.602;12.998;2023-07-22T04:27:32;7.43;;;6.72;;
30299;SDS011;17110;52.602;12.998;2023-07-22T04:29:58;9.88;;;7.70;;
30299;SDS011;17110;52.602;12.998;2023-07-22T04:32:25;8.38;;;7.63;;
30299;SDS011;17110;52.602;12.998;2023-07-22T04:34:51;8.75;;;7.40;;
30299;SDS011;17110;52.602;12.998;2023-07-22T04:37:16;8.65;;;7.85;;
30299;SDS011;17110;52.602;12.998;2023-07-22T04:39:42;7.82;;;7.05;;
30299;SDS011;17110;52.602;12.998;2023-07-22T04:42:11;8.10;;;7.35;;
30299;SDS011;17110;52.602;12.998;2023-07-22T04:44:37;8.27;;;7.20;;
30299;SDS011;17110;52.602;12.998;2023-07-22T04:47:02;7.93;;;7.10;;
30299;SDS011;17110;52.602;12.998;2023-07-22T04:49:30;8.27;;;7.47;;
30299;SDS011;17110;52.602;12.998;2023-07-22T04:51:55;8.82;;;8.02;;
30299;SDS011;17110;52.602;12.998;2023-07-22T04:54:21;10.98;;;8.07;;
30299;SDS011;17110;52.602;12.998;2023-07-22T04:56:46;9.95;;;8.30;;
30299;SDS011;17110;52.602;12.998;2023-07-22T04:59:12;10.50;;;8.10;;
30299;SDS011;17110;52.602;12.998;2023-07-22T05:01:38;11.40;;;9.10;;
30299;SDS011;17110;52.602;12.998;2023-07-22T05:04:04;8.07;;;7.32;;
30299;SDS011;17110;52.602;12.998;2023-07-22T05:06:31;11.80;;;8.43;;
30299;SDS011;17110;52.602;12.998;2023-07-22T05:08:56;8.15;;;7.00;;
30299;SDS011;17110;52.602;12.998;2023-07-22T05:11:22;8.57;;;6.97;;
30299;SDS011;17110;52.602;12.998;2023-07-22T05:13:47;9.00;;;8.13;;
30299;SDS011;17110;52.602;12.998;2023-07-22T05:16:13;7.90;;;7.18;;
30299;SDS011;17110;52.602;12.998;2023-07-22T05:18:39;7.28;;;6.63;;
30299;SDS011;17110;52.602;12.998;2023-07-22T05:21:04;7.78;;;7.00;;
30299;SDS011;17110;52.602;12.998;2023-07-22T05:23:31;8.88;;;7.47;;
30299;SDS011;17110;52.602;12.998;2023-07-22T05:25:57;7.85;;;7.05;;
30299;SDS011;17110;52.602;12.998;2023-07-22T05:28:23;8.73;;;7.47;;
30299;SDS011;17110;52.602;12.998;2023-07-22T05:30:48;8.63;;;7.72;;
30299;SDS011;17110;52.602;12.998;2023-07-22T05:33:14;8.88;;;7.35;;
30299;SDS011;17110;52.602;12.998;2023-07-22T05:35:40;7.88;;;7.13;;
30299;SDS011;17110;52.602;12.998;2023-07-22T05:38:05;9.52;;;8.52;;
30299;SDS011;17110;52.602;12.998;2023-07-22T05:40:32;8.27;;;7.32;;
30299;SDS011;17110;52.602;12.998;2023-07-22T05:42:58;8.75;;;7.93;;
30299;SDS011;17110;52.602;12.998;2023-07-22T05:45:24;7.85;;;7.05;;
30299;SDS011;17110;52.602;12.998;2023-07-22T05:47:49;8.32;;;7.53;;
30299;SDS011;17110;52.602;12.998;2023-07-22T05:50:15;8.07;;;7.28;;
30299;SDS011;17110;52.602;12.998;2023-07-22T05:52:41;8.85;;;7.40;;
30299;SDS011;17110;52.602;12.998;2023-07-22T05:55:07;9.05;;;8.07;;
30299;SDS011;17110;52.602;12.998;2023-07-22T05:57:34;7.97;;;6.97;;
30299;SDS011;17110;52.602;12.998;2023-07-22T05:59:59;9.10;;;7.28;;
30299;SDS011;17110;52.602;12.998;2023-07-22T06:02:25;11.68;;;7.55;;
30299;SDS011;17110;52.602;12.998;2023-07-22T06:04:51;8.02;;;7.20;;
30299;SDS011;17110;52.602;12.998;2023-07-22T06:07:16;13.00;;;8.02;;
30299;SDS011;17110;52.602;12.998;2023-07-22T06:09:42;10.05;;;7.68;;
30299;SDS011;17110;52.602;12.998;2023-07-22T06:12:07;8.73;;;7.57;;
30299;SDS011;17110;52.602;12.998;2023-07-22T06:14:34;8.10;;;7.18;;
30299;SDS011;17110;52.602;12.998;2023-07-22T06:17:00;10.35;;;6.53;;
30299;SDS011;17110;52.602;12.998;2023-07-22T06:19:26;8.15;;;6.78;;
30299;SDS011;17110;52.602;12.998;2023-07-22T06:21:51;7.07;;;6.38;;
30299;SDS011;17110;52.602;12.998;2023-07-22T06:24:17;8.25;;;6.70;;
30299;SDS011;17110;52.602;12.998;2023-07-22T06:26:43;9.48;;;5.78;;
30299;SDS011;17110;52.602;12.998;2023-07-22T06:29:08;10.68;;;6.15;;
30299;SDS011;17110;52.602;12.998;2023-07-22T06:31:35;7.43;;;6.10;;
30299;SDS011;17110;52.602;12.998;2023-07-22T06:34:01;10.68;;;6.60;;
30299;SDS011;17110;52.602;12.998;2023-07-22T06:36:26;9.98;;;6.82;;
30299;SDS011;17110;52.602;12.998;2023-07-22T06:38:52;8.55;;;6.88;;
30299;SDS011;17110;52.602;12.998;2023-07-22T06:41:18;9.43;;;6.80;;
30299;SDS011;17110;52.602;12.998;2023-07-22T06:43:43;10.63;;;6.75;;
30299;SDS011;17110;52.602;12.998;2023-07-22T06:46:09;9.98;;;6.93;;
30299;SDS011;17110;52.602;12.998;2023-07-22T06:48:36;10.00;;;7.05;;
30299;SDS011;17110;52.602;12.998;2023-07-22T06:51:01;9.07;;;7.00;;
30299;SDS011;17110;52.602;12.998;2023-07-22T06:53:27;12.48;;;6.47;;
30299;SDS011;17110;52.602;12.998;2023-07-22T06:55:53;8.75;;;6.85;;
30299;SDS011;17110;52.602;12.998;2023-07-22T06:58:19;9.05;;;7.13;;
30299;SDS011;17110;52.602;12.998;2023-07-22T07:00:45;10.77;;;7.07;;
30299;SDS011;17110;52.602;12.998;2023-07-22T07:03:10;7.95;;;6.78;;
30299;SDS011;17110;52.602;12.998;2023-07-22T07:05:37;9.38;;;6.93;;
30299;SDS011;17110;52.602;12.998;2023-07-22T07:08:03;8.70;;;7.00;;
30299;SDS011;17110;52.602;12.998;2023-07-22T07:10:29;8.30;;;6.63;;
30299;SDS011;17110;52.602;12.998;2023-07-22T07:12:54;9.55;;;6.60;;
30299;SDS011;17110;52.602;12.998;2023-07-22T07:15:20;10.23;;;6.70;;
30299;SDS011;17110;52.602;12.998;2023-07-22T07:17:46;8.45;;;6.95;;
30299;SDS011;17110;52.602;12.998;2023-07-22T07:20:13;9.75;;;6.45;;
30299;SDS011;17110;52.602;12.998;2023-07-22T07:22:40;9.60;;;6.72;;
30299;SDS011;17110;52.602;12.998;2023-07-22T07:25:06;8.55;;;6.85;;
30299;SDS011;17110;52.602;12.998;2023-07-22T07:27:32;9.13;;;6.85;;
30299;SDS011;17110;52.602;12.998;2023-07-22T07:29:58;10.48;;;7.20;;
30299;SDS011;17110;52.602;12.998;2023-07-22T07:32:23;10.85;;;6.72;;
30299;SDS011;17110;52.602;12.998;2023-07-22T07:34:49;6.70;;;5.93;;
30299;SDS011;17110;52.602;12.998;2023-07-22T07:37:14;7.20;;;6.25;;
30299;SDS011;17110;52.602;12.998;2023-07-22T07:39:41;11.13;;;6.72;;
30299;SDS011;17110;52.602;12.998;2023-07-22T07:42:07;7.38;;;6.53;;
30299;SDS011;17110;52.602;12.998;2023-07-22T07:44:33;7.95;;;6.35;;
30299;SDS011;17110;52.602;12.998;2023-07-22T07:46:58;9.82;;;6.50;;
30299;SDS011;17110;52.602;12.998;2023-07-22T07:49:24;9.05;;;5.55;;
30299;SDS011;17110;52.602;12.998;2023-07-22T07:51:50;7.07;;;6.15;;
30299;SDS011;17110;52.602;12.998;2023-07-22T07:54:15;8.63;;;6.40;;
30299;SDS011;17110;52.602;12.998;2023-07-22T07:56:42;8.05;;;6.72;;
30299;SDS011;17110;52.602;12.998;2023-07-22T07:59:08;9.13;;;6.80;;
30299;SDS011;17110;52.602;12.998;2023-07-22T08:01:33;9.35;;;6.50;;
30299;SDS011;17110;52.602;12.998;2023-07-22T08:03:59;8.30;;;6.20;;
30299;SDS011;17110;52.602;12.998;2023-07-22T08:06:25;11.32;;;5.90;;
30299;SDS011;17110;52.602;12.998;2023-07-22T08:08:50;8.32;;;6.30;;
30299;SDS011;17110;52.602;12.998;2023-07-22T08:11:16;6.68;;;5.82;;
30299;SDS011;17110;52.602;12.998;2023-07-22T08:13:43;9.75;;;6.18;;
30299;SDS011;17110;52.602;12.998;2023-07-22T08:16:09;10.60;;;5.97;;
30299;SDS011;17110;52.602;12.998;2023-07-22T08:18:36;7.38;;;6.18;;
30299;SDS011;17110;52.602;12.998;2023-07-22T08:21:02;6.43;;;5.82;;
30299;SDS011;17110;52.602;12.998;2023-07-22T08:23:28;6.90;;;5.38;;
30299;SDS011;17110;52.602;12.998;2023-07-22T08:25:54;9.20;;;4.93;;
30299;SDS011;17110;52.602;12.998;2023-07-22T08:28:19;8.27;;;5.45;;
30299;SDS011;17110;52.602;12.998;2023-07-22T08:30:47;6.40;;;5.10;;
30299;SDS011;17110;52.602;12.998;2023-07-22T08:33:13;7.40;;;5.50;;
30299;SDS011;17110;52.602;12.998;2023-07-22T08:35:39;6.05;;;5.38;;
30299;SDS011;17110;52.602;12.998;2023-07-22T08:38:05;6.82;;;5.22;;
30299;SDS011;17110;52.602;12.998;2023-07-22T08:40:34;7.03;;;5.13;;
30299;SDS011;17110;52.602;12.998;2023-07-22T08:43:00;6.78;;;5.68;;
30299;SDS011;17110;52.602;12.998;2023-07-22T08:45:28;5.93;;;5.30;;
30299;SDS011;17110;52.602;12.998;2023-07-22T08:47:57;10.05;;;5.15;;
30299;SDS011;17110;52.602;12.998;2023-07-22T08:50:24;7.22;;;5.63;;
30299;SDS011;17110;52.602;12.998;2023-07-22T08:52:55;5.75;;;5.00;;
30299;SDS011;17110;52.602;12.998;2023-07-22T08:55:22;9.07;;;5.25;;
30299;SDS011;17110;52.602;12.998;2023-07-22T08:57:48;9.77;;;5.05;;
30299;SDS011;17110;52.602;12.998;2023-07-22T09:00:16;6.82;;;4.78;;
30299;SDS011;17110;52.602;12.998;2023-07-22T09:02:42;6.53;;;4.97;;
30299;SDS011;17110;52.602;12.998;2023-07-22T09:05:10;7.32;;;4.80;;
30299;SDS011;17110;52.602;12.998;2023-07-22T09:07:35;5.00;;;4.50;;
30299;SDS011;17110;52.602;12.998;2023-07-22T09:10:02;6.07;;;4.22;;
30299;SDS011;17110;52.602;12.998;2023-07-22T09:12:29;6.28;;;3.38;;
30299;SDS011;17110;52.602;12.998;2023-07-22T09:14:55;5.80;;;4.13;;
30299;SDS011;17110;52.602;12.998;2023-07-22T09:17:22;6.45;;;3.70;;
30299;SDS011;17110;52.602;12.998;2023-07-22T09:19:51;5.07;;;4.05;;
30299;SDS011;17110;52.602;12.998;2023-07-22T09:22:18;5.90;;;4.07;;
30299;SDS011;17110;52.602;12.998;2023-07-22T09:24:50;7.50;;;3.25;;
30299;SDS011;17110;52.602;12.998;2023-07-22T09:27:15;5.88;;;3.10;;
30299;SDS011;17110;52.602;12.998;2023-07-22T09:29:55;4.60;;;3.78;;
30299;SDS011;17110;52.602;12.998;2023-07-22T09:32:25;4.95;;;3.33;;
30299;SDS011;17110;52.602;12.998;2023-07-22T09:35:00;7.00;;;3.37;;
30299;SDS011;17110;52.602;12.998;2023-07-22T09:37:29;4.85;;;3.60;;
30299;SDS011;17110;52.602;12.998;2023-07-22T09:40:01;7.00;;;3.05;;
30299;SDS011;17110;52.602;12.998;2023-07-22T09:42:27;4.15;;;3.08;;
30299;SDS011;17110;52.602;12.998;2023-07-22T09:44:54;7.32;;;3.38;;
30299;SDS011;17110;52.602;12.998;2023-07-22T09:47:20;4.60;;;3.20;;
30299;SDS011;17110;52.602;12.998;2023-07-22T09:49:46;4.43;;;3.05;;
30299;SDS011;17110;52.602;12.998;2023-07-22T09:52:11;5.47;;;3.35;;
30299;SDS011;17110;52.602;12.998;2023-07-22T09:54:38;4.60;;;3.17;;
30299;SDS011;17110;52.602;12.998;2023-07-22T09:57:12;4.65;;;3.45;;
30299;SDS011;17110;52.602;12.998;2023-07-22T09:59:38;5.03;;;2.92;;
30299;SDS011;17110;52.602;12.998;2023-07-22T10:02:04;5.10;;;3.42;;
30299;SDS011;17110;52.602;12.998;2023-07-22T10:04:32;4.15;;;2.90;;
30299;SDS011;17110;52.602;12.998;2023-07-22T10:06:59;4.72;;;2.90;;
30299;SDS011;17110;52.602;12.998;2023-07-22T10:09:26;5.00;;;3.47;;
30299;SDS011;17110;52.602;12.998;2023-07-22T10:11:55;5.60;;;3.30;;
30299;SDS011;17110;52.602;12.998;2023-07-22T10:14:21;3.58;;;3.28;;
30299;SDS011;17110;52.602;12.998;2023-07-22T10:16:47;5.80;;;3.30;;
30299;SDS011;17110;52.602;12.998;2023-07-22T10:19:14;3.97;;;3.45;;
30299;SDS011;17110;52.602;12.998;2023-07-22T10:21:40;5.68;;;3.67;;
30299;SDS011;17110;52.602;12.998;2023-07-22T10:24:06;4.20;;;3.55;;
30299;SDS011;17110;52.602;12.998;2023-07-22T10:26:32;5.00;;;3.85;;
30299;SDS011;17110;52.602;12.998;2023-07-22T10:29:00;3.88;;;3.28;;
30299;SDS011;17110;52.602;12.998;2023-07-22T10:31:29;4.70;;;3.63;;
30299;SDS011;17110;52.602;12.998;2023-07-22T10:33:55;6.15;;;4.15;;
30299;SDS011;17110;52.602;12.998;2023-07-22T10:36:21;3.75;;;3.13;;
30299;SDS011;17110;52.602;12.998;2023-07-22T10:38:55;4.18;;;2.88;;
30299;SDS011;17110;52.602;12.998;2023-07-22T10:41:21;3.45;;;3.15;;
30299;SDS011;17110;52.602;12.998;2023-07-22T10:43:53;4.50;;;3.22;;
30299;SDS011;17110;52.602;12.998;2023-07-22T10:46:30;3.55;;;3.20;;
30299;SDS011;17110;52.602;12.998;2023-07-22T10:49:00;6.05;;;3.55;;
30299;SDS011;17110;52.602;12.998;2023-07-22T10:51:35;5.13;;;3.20;;
30299;SDS011;17110;52.602;12.998;2023-07-22T10:54:01;4.40;;;3.30;;
30299;SDS011;17110;52.602;12.998;2023-07-22T10:56:27;3.58;;;3.05;;
30299;SDS011;17110;52.602;12.998;2023-07-22T10:58:56;3.67;;;3.33;;
30299;SDS011;17110;52.602;12.998;2023-07-22T11:01:30;4.93;;;2.97;;
30299;SDS011;17110;52.602;12.998;2023-07-22T11:04:06;4.55;;;3.30;;
30299;SDS011;17110;52.602;12.998;2023-07-22T11:06:37;6.03;;;3.53;;
30299;SDS011;17110;52.602;12.998;2023-07-22T11:09:04;5.13;;;3.30;;
30299;SDS011;17110;52.602;12.998;2023-07-22T11:11:34;6.10;;;3.35;;
30299;SDS011;17110;52.602;12.998;2023-07-22T11:14:12;4.82;;;3.55;;
30299;SDS011;17110;52.602;12.998;2023-07-22T11:16:40;7.65;;;3.85;;
30299;SDS011;17110;52.602;12.998;2023-07-22T11:19:07;4.68;;;3.60;;
30299;SDS011;17110;52.602;12.998;2023-07-22T11:21:32;3.78;;;3.40;;
30299;SDS011;17110;52.602;12.998;2023-07-22T11:23:58;6.20;;;3.58;;
30299;SDS011;17110;52.602;12.998;2023-07-22T11:26:24;4.47;;;3.72;;
30299;SDS011;17110;52.602;12.998;2023-07-22T11:28:50;4.03;;;3.63;;
30299;SDS011;17110;52.602;12.998;2023-07-22T11:31:15;4.20;;;3.80;;
30299;SDS011;17110;52.602;12.998;2023-07-22T11:33:42;4.05;;;3.58;;
30299;SDS011;17110;52.602;12.998;2023-07-22T11:36:08;4.53;;;3.80;;
30299;SDS011;17110;52.602;12.998;2023-07-22T11:38:34;4.35;;;3.70;;
30299;SDS011;17110;52.602;12.998;2023-07-22T11:41:00;4.15;;;3.17;;
30299;SDS011;17110;52.602;12.998;2023-07-22T11:43:26;4.82;;;3.75;;
30299;SDS011;17110;52.602;12.998;2023-07-22T11:45:52;5.72;;;3.97;;
30299;SDS011;17110;52.602;12.998;2023-07-22T11:48:18;4.60;;;4.20;;
30299;SDS011;17110;52.602;12.998;2023-07-22T11:50:45;4.32;;;3.70;;
30299;SDS011;17110;52.602;12.998;2023-07-22T11:53:11;4.22;;;3.83;;
30299;SDS011;17110;52.602;12.998;2023-07-22T11:55:36;5.13;;;3.92;;
30299;SDS011;17110;52.602;12.998;2023-07-22T11:58:03;6.60;;;3.80;;
30299;SDS011;17110;52.602;12.998;2023-07-22T12:00:29;5.38;;;4.35;;
30299;SDS011;17110;52.602;12.998;2023-07-22T12:02:54;4.68;;;4.20;;
30299;SDS011;17110;52.602;12.998;2023-07-22T12:05:20;6.63;;;4.15;;
30299;SDS011;17110;52.602;12.998;2023-07-22T12:07:48;4.80;;;4.30;;
30299;SDS011;17110;52.602;12.998;2023-07-22T12:10:15;5.40;;;4.05;;
30299;SDS011;17110;52.602;12.998;2023-07-22T12:12:41;5.75;;;4.57;;
30299;SDS011;17110;52.602;12.998;2023-07-22T12:15:08;4.50;;;4.03;;
30299;SDS011;17110;52.602;12.998;2023-07-22T12:17:43;5.25;;;4.47;;
30299;SDS011;17110;52.602;12.998;2023-07-22T12:20:13;5.00;;;4.15;;
30299;SDS011;17110;52.602;12.998;2023-07-22T12:22:39;6.30;;;4.60;;
30299;SDS011;17110;52.602;12.998;2023-07-22T12:25:07;5.97;;;4.80;;
30299;SDS011;17110;52.602;12.998;2023-07-22T12:27:33;5.60;;;4.80;;
30299;SDS011;17110;52.602;12.998;2023-07-22T12:29:59;5.47;;;4.82;;
30299;SDS011;17110;52.602;12.998;2023-07-22T12:32:25;6.18;;;4.75;;
30299;SDS011;17110;52.602;12.998;2023-07-22T12:34:50;5.65;;;4.30;;
30299;SDS011;17110;52.602;12.998;2023-07-22T12:37:16;5.47;;;4.80;;
30299;SDS011;17110;52.602;12.998;2023-07-22T12:39:41;6.93;;;5.22;;
30299;SDS011;17110;52.602;12.998;2023-07-22T12:42:08;7.47;;;5.47;;
30299;SDS011;17110;52.602;12.998;2023-07-22T12:44:34;6.40;;;5.38;;
30299;SDS011;17110;52.602;12.998;2023-07-22T12:47:00;5.78;;;5.00;;
30299;SDS011;17110;52.602;12.998;2023-07-22T12:49:25;8.02;;;4.72;;
30299;SDS011;17110;52.602;12.998;2023-07-22T12:51:51;7.45;;;4.97;;
30299;SDS011;17110;52.602;12.998;2023-07-22T12:54:17;5.30;;;4.80;;
30299;SDS011;17110;52.602;12.998;2023-07-22T12:56:42;4.85;;;4.45;;
30299;SDS011;17110;52.602;12.998;2023-07-22T12:59:09;5.57;;;5.07;;
30299;SDS011;17110;52.602;12.998;2023-07-22T13:01:35;5.22;;;4.45;;
30299;SDS011;17110;52.602;12.998;2023-07-22T13:04:01;6.53;;;5.57;;
30299;SDS011;17110;52.602;12.998;2023-07-22T13:06:26;5.72;;;5.20;;
30299;SDS011;17110;52.602;12.998;2023-07-22T13:08:52;5.80;;;5.30;;
30299;SDS011;17110;52.602;12.998;2023-07-22T13:11:17;6.05;;;5.45;;
30299;SDS011;17110;52.602;12.998;2023-07-22T13:13:43;5.75;;;5.13;;
30299;SDS011;17110;52.602;12.998;2023-07-22T13:16:10;6.65;;;5.55;;
30299;SDS011;17110;52.602;12.998;2023-07-22T13:18:35;6.10;;;4.95;;
30299;SDS011;17110;52.602;12.998;2023-07-22T13:21:01;5.75;;;5.18;;
30299;SDS011;17110;52.602;12.998;2023-07-22T13:23:27;5.63;;;5.07;;
30299;SDS011;17110;52.602;12.998;2023-07-22T13:25:52;8.73;;;5.30;;
30299;SDS011;17110;52.602;12.998;2023-07-22T13:28:18;7.00;;;5.15;;
30299;SDS011;17110;52.602;12.998;2023-07-22T13:30:44;5.10;;;4.68;;
30299;SDS011;17110;52.602;12.998;2023-07-22T13:33:10;5.60;;;4.32;;
30299;SDS011;17110;52.602;12.998;2023-07-22T13:35:36;5.13;;;4.63;;
30299;SDS011;17110;52.602;12.998;2023-07-22T13:38:02;5.72;;;5.13;;
30299;SDS011;17110;52.602;12.998;2023-07-22T13:40:27;6.47;;;5.85;;
30299;SDS011;17110;52.602;12.998;2023-07-22T13:42:53;6.88;;;5.18;;
30299;SDS011;17110;52.602;12.998;2023-07-22T13:45:19;5.10;;;4.60;;
30299;SDS011;17110;52.602;12.998;2023-07-22T13:47:44;7.13;;;4.47;;
30299;SDS011;17110;52.602;12.998;2023-07-22T13:50:11;4.97;;;4.53;;
30299;SDS011;17110;52.602;12.998;2023-07-22T13:52:37;6.22;;;4.60;;
30299;SDS011;17110;52.602;12.998;2023-07-22T13:55:03;5.47;;;4.80;;
30299;SDS011;17110;52.602;12.998;2023-07-22T13:57:29;5.15;;;4.60;;
30299;SDS011;17110;52.602;12.998;2023-07-22T13:59:54;4.45;;;4.05;;
30299;SDS011;17110;52.602;12.998;2023-07-22T14:02:20;4.63;;;4.10;;
30299;SDS011;17110;52.602;12.998;2023-07-22T14:04:46;4.85;;;4.35;;
30299;SDS011;17110;52.602;12.998;2023-07-22T14:07:13;5.13;;;4.63;;
30299;SDS011;17110;52.602;12.998;2023-07-22T14:09:38;6.88;;;5.50;;
30299;SDS011;17110;52.602;12.998;2023-07-22T14:12:04;8.57;;;5.18;;
30299;SDS011;17110;52.602;12.998;2023-07-22T14:14:31;4.40;;;4.00;;
30299;SDS011;17110;52.602;12.998;2023-07-22T14:16:56;4.05;;;3.75;;
30299;SDS011;17110;52.602;12.998;2023-07-22T14:19:23;4.50;;;4.15;;
30299;SDS011;17110;52.602;12.998;2023-07-22T14:21:48;5.18;;;4.78;;
30299;SDS011;17110;52.602;12.998;2023-07-22T14:24:15;8.07;;;5.70;;
30299;SDS011;17110;52.602;12.998;2023-07-22T14:26:41;5.72;;;4.78;;